• Join FlightAware (Why Join?)
  • Login
  • US Flag 
03:22AM EDT


 

Airport Tracker/Info


-or-


 

Live Flight TrackerFlight Track Log ✈ AWE3374 ✈ 26-May-2013 ✈ KDCA - KSDF

Flight Track Log - Related Links

Times and Time Zones

All times are in EDT time to prevent confusion due to time zone crossing. See the AWE3374 flight status page for this flight to view local times or setup timezone preferences in your user account.

Time Position Orientation Groundspeed Altitude Reporting Facility
EDT Latitude Longitude Course Direction KTS MPH feet Rate Location/Type
03:09PM 38.9000 -77.0667 270° West 198 228 2,400  Level Potomac TRACON
03:10PM 38.8500 -77.3856 270° West  Level FlightAware Approximate
03:10PM 38.9500 -77.1333 314° West 238 274 5,900  Level Potomac TRACON
03:11PM 38.8500 -77.5030 270° West  Level FlightAware Approximate
03:11PM 38.9833 -77.2000 303° West 253 291 9,500  Level Potomac TRACON
03:12PM 38.8500 -77.6204 270° West  Level FlightAware Approximate
03:13PM 38.8500 -77.7378 270° West  Level FlightAware Approximate
03:13PM 38.9747 -77.4019 267° West 285 328 14,600  Level Washington Center
03:14PM 38.8502 -77.8553 270° West  Level FlightAware Approximate
03:14PM 38.9586 -77.5136 260° West 311 358 17,200  Level Washington Center
03:15PM 38.9397 -77.6414 259° West 329 379 20,000 2,520 Climbing Washington Center
03:16PM 38.9253 -77.7475 260° West 334 384 22,300 2,220 Climbing Washington Center
03:17PM 38.9042 -77.8803 258° West 341 392 24,500 2,040 Climbing Washington Center
03:18PM 38.8853 -77.9997 259° West 341 392 26,400 1,560 Climbing Washington Center
03:19PM 38.8658 -78.1272 259° West 352 405 27,700 1,140 Climbing Washington Center
03:20PM 38.8464 -78.2597 259° West 369 425 28,800 1,140 Climbing Washington Center
03:21PM 38.8308 -78.3950 262° West 379 436 30,100 1,200 Climbing Washington Center
03:22PM 38.8128 -78.5356 261° West 392 451 31,300 900 Climbing Washington Center
03:23PM 38.7947 -78.6733 260° West 397 457 32,000 300 Climbing Washington Center
03:24PM 38.7786 -78.8111 262° West 397 457 32,000  Level Washington Center
03:25PM 38.7603 -78.9461 260° West 397 457 32,000  Level Washington Center
03:26PM 38.7417 -79.0839 260° West 392 451 32,000  Level Washington Center
03:27PM 38.7231 -79.2267 261° West 392 451 32,000  Level Washington Center
03:28PM 38.7064 -79.3614 261° West 412 474 32,000  Level Washington Center
03:29PM 38.6850 -79.5067 259° West 417 480 32,000  Level Washington Center
03:30PM 38.6631 -79.6622 260° West 417 480 32,000  Level Washington Center
03:31PM 38.6436 -79.8075 260° West 417 480 32,000  Level Washington Center
03:33PM 38.5900 -80.1706 259° West 416 479 32,000  Level Indianapolis Center
03:34PM 38.5694 -80.3153 260° West 425 489 32,000  Level Indianapolis Center
03:35PM 38.5503 -80.4581 260° West 427 491 32,000  Level Indianapolis Center
03:36PM 38.5389 -80.6075 264° West 422 486 32,000  Level Indianapolis Center
03:37PM 38.5281 -80.7556 265° West 420 483 32,000  Level Indianapolis Center
03:38PM 38.5175 -80.9042 265° West 419 482 32,000  Level Indianapolis Center
03:39PM 38.5072 -81.0542 265° West 422 486 32,000  Level Indianapolis Center
03:40PM 38.4969 -81.2294 266° West 412 474 32,000  Level Indianapolis Center
03:42PM 38.4783 -81.3772 261° West 420 483 32,000  Level Indianapolis Center
03:43PM 38.4364 -81.5250 250° West 436 502 32,000  Level Indianapolis Center
03:44PM 38.3958 -81.6694 250° West 430 495 32,000  Level Indianapolis Center
03:45PM 38.3550 -81.8142 250° West 430 495 32,000  Level Indianapolis Center
03:46PM 38.3128 -81.9583 250° West 433 498 32,000  Level Indianapolis Center
03:47PM 38.2725 -82.1042 251° West 436 502 32,000  Level Indianapolis Center
03:48PM 38.2300 -82.2481 249° West 433 498 32,000  Level Indianapolis Center
03:49PM 38.1889 -82.3903 250° West 430 495 32,000  Level Indianapolis Center
03:50PM 38.1439 -82.5450 250° West 430 495 32,000  Level Indianapolis Center
03:51PM 38.1022 -82.6836 249° West 422 486 32,000 -600 Level Indianapolis Center
03:52PM 38.0625 -82.8203 250° West 414 476 30,800 -1,740 Descending Indianapolis Center
03:53PM 38.0153 -82.9783 249° West 409 471 28,500 -2,100 Descending Indianapolis Center
03:54PM 37.9778 -83.1092 250° West 398 458 26,500 -1,680 Descending Indianapolis Center
03:55PM 37.9397 -83.2311 248° West 377 434 25,100 -1,260 Descending Indianapolis Center
03:56PM 37.9031 -83.3542 249° West 374 430 24,000 -1,020 Descending Indianapolis Center
03:57PM 37.8658 -83.4750 249° West 369 425 23,100 -720 Descending Indianapolis Center
03:58PM 37.8300 -83.5942 249° West 365 420 22,600 -780 Descending Indianapolis Center
03:59PM 37.7942 -83.7117 249° West 359 413 21,600 -1,080 Descending Indianapolis Center
04:00PM 37.7539 -83.8458 249° West 350 403 20,400 -1,080 Descending Indianapolis Center
04:01PM 37.7189 -83.9572 248° West 343 395 19,400 -1,080 Descending Indianapolis Center
04:02PM 37.7106 -84.0722 265° West 328 377 18,300 -960 Descending Indianapolis Center
04:03PM 37.7033 -84.1839 265° West 321 369 17,500 -840 Descending Indianapolis Center
04:04PM 37.6969 -84.2928 266° West 313 360 16,600 -960 Descending Indianapolis Center
04:05PM 37.6903 -84.4014 266° West 310 357 15,600 -1,080 Descending Indianapolis Center
04:06PM 37.6822 -84.5283 265° West 312 359 14,500 -1,080 Descending Indianapolis Center
04:07PM 37.6753 -84.6347 265° West 307 353 13,500 -960 Descending Indianapolis Center
04:08PM 37.6689 -84.7392 266° West 301 346 12,600 -960 Descending Indianapolis Center
04:09PM 37.6625 -84.8411 266° West 294 338 11,600 -960 Descending Indianapolis Center
04:10PM 37.6575 -84.9414 266° West 286 329 10,700 -840 Descending Indianapolis Center
04:11PM 37.6994 -85.0156 306° West 264 304 10,000 -360 Descending Indianapolis Center
04:12PM 37.7458 -85.0822 311° West 254 292 10,000  Level Indianapolis Center
04:13PM 37.8017 -85.1592 313° West 254 292 10,000 -840 Level Indianapolis Center
04:14PM 37.8486 -85.2261 312° West 255 293 8,400 -1,680 Descending Indianapolis Center
04:15PM 37.8967 -85.2919 313° West 255 293 6,600 -1,200 Descending Indianapolis Center
04:16PM 37.9442 -85.3586 312° West 255 293 6,000 -300 Descending Indianapolis Center
04:17PM 37.9928 -85.4261 312° West 258 297 6,000  Level Indianapolis Center
04:18PM 38.0414 -85.4939 312° West 259 298 6,000  Level Indianapolis Center
04:20PM 38.0903 -85.5617 313° West 258 297 6,000  Level Indianapolis Center
04:21PM 38.1483 -85.6111 326° Northwest 261 300 6,000 -420 Level Indianapolis Center
04:22PM 38.2153 -85.6417 340° North 257 296 5,200 -1,200 Descending Indianapolis Center
04:23PM 38.2878 -85.6817 337° Northwest 247 284 3,600 -1,080 Descending Indianapolis Center
04:24PM 38.3431 -85.7128 336° Northwest 244 281 3,000 -600 Descending Indianapolis Center